Time;durP1;ratioP1;P1;durP2;ratioP2;P2;SDS_P1;SDS_P2;PMS_P1;PMS_P2;Temp;Humidity;BMP_temperature;BMP_pressure;BME280_temperature;BME280_humidity;BME280_pressure;Samples;Min_cycle;Max_cycle;Signal;HPM_P1;HPM_P2
2022/07/18 00:02:05;;;;;;;5.80;2.20;;;14.60;99.90;;;;;;5113037;28;20203;-79
2022/07/18 00:04:34;;;;;;;6.73;2.10;;;13.80;99.90;;;;;;5110748;28;20197;-79
2022/07/18 00:07:01;;;;;;;5.83;2.90;;;13.40;99.90;;;;;;5114003;28;20200;-79
2022/07/18 00:09:27;;;;;;;5.70;2.17;;;13.50;99.90;;;;;;5105028;28;20203;-79
2022/07/18 00:11:55;;;;;;;2.83;2.10;;;13.70;99.90;;;;;;5112416;28;20205;-79
2022/07/18 00:14:22;;;;;;;3.60;2.10;;;13.80;99.90;;;;;;5106226;28;20546;-79
2022/07/18 00:16:49;;;;;;;11.97;2.87;;;13.90;99.90;;;;;;5113988;28;20225;-79
2022/07/18 00:19:16;;;;;;;10.27;2.53;;;14.10;99.90;;;;;;5109792;28;20202;-79
2022/07/18 00:21:45;;;;;;;7.20;2.13;;;14.30;99.90;;;;;;5093192;28;20232;-79
2022/07/18 00:24:12;;;;;;;3.57;1.90;;;14.30;99.90;;;;;;5109916;28;20212;-79
2022/07/18 00:26:38;;;;;;;4.60;2.23;;;14.40;99.90;;;;;;5113081;28;20204;-67
2022/07/18 00:29:05;;;;;;;5.80;2.47;;;14.40;99.90;;;;;;5111559;28;20197;-67
2022/07/18 00:31:33;;;;;;;3.83;2.17;;;13.90;99.90;;;;;;5104514;28;20536;-67
2022/07/18 00:34:00;;;;;;;6.13;2.47;;;13.50;99.90;;;;;;5112236;28;20201;-67
2022/07/18 00:36:26;;;;;;;6.43;2.67;;;13.30;99.90;;;;;;5112127;27;20216;-67
2022/07/18 00:38:55;;;;;;;4.77;2.20;;;13.20;99.90;;;;;;5097646;28;20598;-66
2022/07/18 00:41:22;;;;;;;4.20;1.93;;;12.80;99.90;;;;;;5099469;28;20198;-67
2022/07/18 00:43:49;;;;;;;5.40;2.43;;;12.80;99.90;;;;;;5099956;28;20205;-67
2022/07/18 00:46:16;;;;;;;3.33;2.30;;;13.10;99.90;;;;;;5109236;28;20565;-67
2022/07/18 00:48:43;;;;;;;6.03;2.30;;;13.30;99.90;;;;;;5112521;28;20216;-67
2022/07/18 00:51:10;;;;;;;4.77;2.60;;;13.50;99.90;;;;;;5112898;28;20193;-67
2022/07/18 00:53:37;;;;;;;3.93;2.00;;;13.50;99.90;;;;;;5102381;28;20212;-67
2022/07/18 00:56:06;;;;;;;4.50;2.10;;;13.60;99.90;;;;;;5094641;28;20236;-67
2022/07/18 00:58:33;;;;;;;5.23;2.30;;;13.10;99.90;;;;;;5092204;28;20201;-67
2022/07/18 01:03:48;;;;;;;2.67;2.17;;;13.40;99.90;;;;;;5108451;28;20200;-79
2022/07/18 01:06:15;;;;;;;4.13;2.33;;;13.60;99.90;;;;;;5112290;28;20197;-79
2022/07/18 01:08:43;;;;;;;7.43;2.50;;;13.70;99.90;;;;;;5112516;28;20205;-79
2022/07/18 01:11:12;;;;;;;5.03;2.57;;;13.70;99.90;;;;;;5112593;28;20204;-79
2022/07/18 01:13:39;;;;;;;5.10;2.23;;;13.80;99.90;;;;;;5109746;28;20207;-79
2022/07/18 01:16:07;;;;;;;3.53;2.23;;;13.70;99.90;;;;;;5105735;28;20574;-79
2022/07/18 01:18:34;;;;;;;4.43;2.20;;;13.40;99.90;;;;;;5111674;28;20205;-79
2022/07/18 01:21:03;;;;;;;4.40;2.30;;;13.50;99.90;;;;;;5112649;28;20203;-79
2022/07/18 01:23:29;;;;;;;3.00;2.40;;;13.50;99.90;;;;;;5104603;28;20219;-79
2022/07/18 01:25:56;;;;;;;2.87;2.27;;;13.30;99.90;;;;;;5096962;28;20197;-79
2022/07/18 01:28:23;;;;;;;4.07;2.20;;;13.20;99.90;;;;;;5112186;28;20561;-79
2022/07/18 01:30:50;;;;;;;3.03;2.40;;;13.10;99.90;;;;;;5112269;28;20197;-79
2022/07/18 01:33:17;;;;;;;3.73;2.13;;;12.70;99.90;;;;;;5104530;28;20217;-79
2022/07/18 01:35:44;;;;;;;4.87;2.10;;;12.50;99.90;;;;;;5104547;28;20216;-79
2022/07/18 01:38:12;;;;;;;6.90;2.50;;;12.60;99.90;;;;;;5109062;28;20226;-79
2022/07/18 01:40:39;;;;;;;4.70;2.80;;;12.60;99.90;;;;;;5111973;28;20197;-78
2022/07/18 01:43:08;;;;;;;4.87;2.80;;;12.50;99.90;;;;;;5111162;28;20200;-79
2022/07/18 01:45:35;;;;;;;5.97;2.67;;;12.40;99.90;;;;;;5112473;28;20192;-79
2022/07/18 01:48:02;;;;;;;4.33;2.43;;;12.60;99.90;;;;;;5110220;28;20559;-79
2022/07/18 01:50:29;;;;;;;5.60;3.00;;;12.80;99.90;;;;;;5112618;28;20201;-79
2022/07/18 01:52:56;;;;;;;5.50;3.13;;;12.90;99.90;;;;;;5111401;28;20197;-78
2022/07/18 01:55:24;;;;;;;6.80;3.10;;;13.00;99.90;;;;;;5112569;28;20224;-78
2022/07/18 01:57:51;;;;;;;5.37;3.40;;;13.00;99.90;;;;;;5113998;28;20205;-78
2022/07/18 02:00:18;;;;;;;5.33;2.97;;;13.00;99.90;;;;;;5116377;27;20545;-78
2022/07/18 02:02:45;;;;;;;5.73;3.60;;;12.80;99.90;;;;;;5115083;27;20193;-79
2022/07/18 02:05:11;;;;;;;9.43;3.30;;;12.80;99.90;;;;;;5108503;28;20204;-79
2022/07/18 02:07:40;;;;;;;4.57;3.63;;;13.00;99.90;;;;;;5115803;28;20216;-79
2022/07/18 02:10:09;;;;;;;6.40;3.00;;;13.10;99.90;;;;;;5115292;28;20205;-79
2022/07/18 02:12:38;;;;;;;4.03;2.77;;;13.10;99.90;;;;;;5095522;28;20572;-78
2022/07/18 02:15:07;;;;;;;5.73;3.37;;;12.80;99.90;;;;;;5096232;28;20288;-79
2022/07/18 02:17:34;;;;;;;5.03;2.80;;;12.80;99.90;;;;;;5115273;28;20208;-78
2022/07/18 02:20:02;;;;;;;6.77;3.67;;;12.70;99.90;;;;;;5115672;28;20201;-78
2022/07/18 02:22:28;;;;;;;7.53;3.47;;;12.70;99.90;;;;;;5107255;28;20198;-79
2022/07/18 02:24:55;;;;;;;5.43;3.60;;;12.80;99.90;;;;;;5114009;28;20189;-78
2022/07/18 02:27:23;;;;;;;4.67;3.60;;;12.90;99.90;;;;;;5114823;28;20193;-78
2022/07/18 02:29:51;;;;;;;7.53;3.40;;;12.90;99.90;;;;;;5110555;28;20201;-78
2022/07/18 02:32:18;;;;;;;7.17;2.97;;;12.90;99.90;;;;;;5114046;28;20659;-79
2022/07/18 02:34:46;;;;;;;5.77;3.20;;;12.80;99.90;;;;;;5115769;28;20197;-79
2022/07/18 02:37:13;;;;;;;4.23;2.77;;;12.80;99.90;;;;;;5115031;27;20261;-78
2022/07/18 02:39:40;;;;;;;4.77;2.70;;;12.90;99.90;;;;;;5114468;28;20201;-79
2022/07/18 02:42:07;;;;;;;4.60;2.77;;;12.80;99.90;;;;;;5115543;28;20201;-78
2022/07/18 02:44:34;;;;;;;3.73;2.70;;;12.70;99.90;;;;;;5105731;28;20209;-78
2022/07/18 02:47:03;;;;;;;4.33;2.47;;;12.70;99.90;;;;;;5114351;28;20235;-79
2022/07/18 02:49:31;;;;;;;3.93;2.47;;;12.70;99.90;;;;;;5115431;28;20673;-78
2022/07/18 02:52:01;;;;;;;5.50;2.43;;;12.70;99.90;;;;;;5113997;28;20201;-78
2022/07/18 02:54:29;;;;;;;3.90;2.40;;;12.50;99.90;;;;;;5105113;28;20212;-78
2022/07/18 02:56:56;;;;;;;4.20;2.60;;;12.00;99.90;;;;;;5115077;27;20682;-70
2022/07/18 02:59:24;;;;;;;4.13;3.17;;;11.90;99.90;;;;;;5113880;28;20190;-66
2022/07/18 03:01:51;;;;;;;4.63;2.70;;;11.70;99.90;;;;;;5114257;28;20654;-66
2022/07/18 03:04:20;;;;;;;5.03;2.87;;;11.90;99.90;;;;;;5103289;28;20200;-67
2022/07/18 03:06:48;;;;;;;5.50;3.47;;;11.90;99.90;;;;;;5114036;28;20193;-67
2022/07/18 03:09:15;;;;;;;7.43;3.43;;;11.90;99.90;;;;;;5109549;28;20562;-67
2022/07/18 03:11:42;;;;;;;7.53;3.50;;;12.00;99.90;;;;;;5113686;28;20576;-67
2022/07/18 03:14:09;;;;;;;5.77;2.70;;;12.00;99.90;;;;;;5106806;28;20205;-66
2022/07/18 03:16:36;;;;;;;4.03;2.80;;;12.10;99.90;;;;;;5094364;28;20843;-67
2022/07/18 03:19:03;;;;;;;5.20;2.20;;;12.40;99.90;;;;;;5093568;28;20204;-67
2022/07/18 03:21:31;;;;;;;4.87;2.80;;;12.40;99.90;;;;;;5094711;28;20675;-67
2022/07/18 03:23:58;;;;;;;7.37;2.73;;;12.50;99.90;;;;;;5106003;28;20224;-67
2022/07/18 03:26:25;;;;;;;3.40;2.60;;;12.60;99.90;;;;;;5107266;28;20200;-67
2022/07/18 03:28:52;;;;;;;3.67;2.60;;;12.60;99.90;;;;;;5104687;28;20197;-67
2022/07/18 03:31:19;;;;;;;5.97;2.97;;;12.60;99.90;;;;;;5102831;28;20209;-67
2022/07/18 03:33:45;;;;;;;8.70;4.10;;;12.50;99.90;;;;;;5114258;28;20205;-67
2022/07/18 03:36:12;;;;;;;6.53;2.83;;;12.60;99.90;;;;;;5113197;28;20223;-67
2022/07/18 03:38:42;;;;;;;4.63;2.93;;;12.60;99.90;;;;;;5112511;28;20201;-67
2022/07/18 03:41:10;;;;;;;5.30;2.77;;;12.70;99.90;;;;;;5107849;28;20212;-67
2022/07/18 03:43:37;;;;;;;4.77;2.50;;;12.70;99.90;;;;;;5103309;28;20201;-67
2022/07/18 03:46:04;;;;;;;3.33;2.53;;;12.80;99.90;;;;;;5093487;28;20200;-67
2022/07/18 03:48:30;;;;;;;3.27;2.17;;;12.80;99.90;;;;;;5093450;28;20205;-67
2022/07/18 03:50:57;;;;;;;6.27;2.13;;;12.70;99.90;;;;;;5092853;28;20202;-67
2022/07/18 03:53:24;;;;;;;4.87;2.60;;;12.60;99.90;;;;;;5093511;28;20648;-67
2022/07/18 03:55:52;;;;;;;8.00;2.90;;;12.70;99.90;;;;;;5092806;28;20209;-67
2022/07/18 03:58:19;;;;;;;4.03;2.40;;;12.80;99.90;;;;;;5093323;28;20205;-67
2022/07/18 04:00:46;;;;;;;3.23;2.43;;;12.80;99.90;;;;;;5093638;28;20232;-67
2022/07/18 04:03:12;;;;;;;6.10;2.40;;;12.80;99.90;;;;;;5092746;28;20204;-67
2022/07/18 04:05:39;;;;;;;6.13;3.33;;;12.80;99.90;;;;;;5093262;28;20206;-67
2022/07/18 04:08:06;;;;;;;4.77;2.20;;;12.90;99.90;;;;;;5093880;28;20205;-67
2022/07/18 04:10:33;;;;;;;3.97;2.50;;;13.20;99.90;;;;;;5106882;28;20197;-67
2022/07/18 04:13:01;;;;;;;4.77;2.63;;;13.70;99.90;;;;;;5112584;28;20209;-67
2022/07/18 04:15:28;;;;;;;3.77;2.70;;;13.40;99.90;;;;;;5104804;28;20207;-67
2022/07/18 04:17:55;;;;;;;4.03;2.37;;;13.50;99.90;;;;;;5112586;28;20220;-67
2022/07/18 04:20:22;;;;;;;5.40;3.60;;;13.70;99.90;;;;;;5105713;28;20232;-67
2022/07/18 04:22:51;;;;;;;6.37;3.20;;;13.70;99.90;;;;;;5093161;28;20219;-67
2022/07/18 04:25:19;;;;;;;6.47;3.57;;;13.30;99.90;;;;;;5104160;28;20200;-67
2022/07/18 04:27:47;;;;;;;3.90;3.50;;;13.50;99.90;;;;;;5112306;28;20197;-67
2022/07/18 04:30:16;;;;;;;5.80;3.20;;;13.70;99.90;;;;;;5109921;28;20643;-67
2022/07/18 04:32:43;;;;;;;4.87;2.97;;;15.20;99.90;;;;;;5093002;28;20655;-67
2022/07/18 04:35:11;;;;;;;7.43;3.10;;;15.10;99.90;;;;;;5092630;28;20205;-67
2022/07/18 04:37:38;;;;;;;4.33;3.27;;;14.80;99.90;;;;;;5093180;28;20217;-67
2022/07/18 04:40:07;;;;;;;6.47;2.97;;;15.00;99.90;;;;;;5092543;28;20660;-67
2022/07/18 04:42:34;;;;;;;4.60;2.77;;;14.90;99.90;;;;;;5093019;28;20652;-67
2022/07/18 04:45:01;;;;;;;3.70;2.87;;;14.80;99.90;;;;;;5092101;28;20222;-67
2022/07/18 04:47:30;;;;;;;3.93;2.50;;;14.80;99.90;;;;;;5091528;28;20213;-67
2022/07/18 04:49:57;;;;;;;8.13;2.57;;;14.90;99.90;;;;;;5091758;28;20208;-67
2022/07/18 04:52:24;;;;;;;3.27;2.53;;;14.40;99.90;;;;;;5091860;28;20211;-67
2022/07/18 04:54:51;;;;;;;5.80;2.47;;;14.40;99.90;;;;;;5092864;28;20571;-67
2022/07/18 04:57:18;;;;;;;4.60;2.73;;;14.30;99.90;;;;;;5092255;28;20245;-67
2022/07/18 04:59:46;;;;;;;4.60;2.90;;;14.00;99.90;;;;;;5112974;28;20205;-67
2022/07/18 05:02:13;;;;;;;6.00;2.60;;;14.00;99.90;;;;;;5109173;28;20223;-67
2022/07/18 05:04:42;;;;;;;5.37;2.50;;;14.50;99.90;;;;;;5094060;28;20207;-67
2022/07/18 05:07:08;;;;;;;3.27;2.47;;;14.90;99.90;;;;;;5092495;28;20197;-67
2022/07/18 05:09:35;;;;;;;5.73;2.50;;;15.00;99.90;;;;;;5092901;28;20206;-67
2022/07/18 05:12:02;;;;;;;8.77;3.07;;;14.80;99.90;;;;;;5091938;28;20202;-67
2022/07/18 05:14:29;;;;;;;7.07;2.50;;;15.00;99.90;;;;;;5092760;28;20212;-67
2022/07/18 05:16:56;;;;;;;8.70;3.07;;;15.30;99.90;;;;;;5091015;28;20244;-68
2022/07/18 05:19:23;;;;;;;5.53;2.77;;;15.50;99.90;;;;;;5092159;28;20205;-67
2022/07/18 05:21:51;;;;;;;10.47;3.23;;;15.50;99.90;;;;;;5091930;28;20564;-67
2022/07/18 05:24:18;;;;;;;7.90;2.60;;;15.60;99.90;;;;;;5091967;28;20220;-67
2022/07/18 05:26:45;;;;;;;13.17;2.77;;;15.70;99.90;;;;;;5092370;28;20220;-67
2022/07/18 05:29:13;;;;;;;4.60;2.20;;;15.90;99.90;;;;;;5091923;28;20205;-67
2022/07/18 05:31:41;;;;;;;5.40;2.40;;;16.00;99.90;;;;;;5091686;28;20209;-68
2022/07/18 05:34:08;;;;;;;3.70;2.35;;;15.90;99.90;;;;;;5092253;28;20263;-67
2022/07/18 05:36:35;;;;;;;4.10;2.30;;;15.90;99.90;;;;;;5091757;28;20205;-67
2022/07/18 05:39:04;;;;;;;3.47;2.43;;;16.20;99.90;;;;;;5108559;28;20200;-67
2022/07/18 05:41:31;;;;;;;2.78;2.10;;;17.20;99.90;;;;;;5112114;28;20232;-67
2022/07/18 05:43:58;;;;;;;2.28;1.92;;;17.10;99.90;;;;;;5110675;28;20204;-67
2022/07/18 05:46:25;;;;;;;2.50;1.98;;;17.20;99.90;;;;;;5095365;28;20228;-67
2022/07/18 05:48:53;;;;;;;2.85;1.80;;;17.90;99.90;;;;;;5091100;28;20206;-67
2022/07/18 05:51:21;;;;;;;2.85;1.98;;;17.30;99.90;;;;;;5091197;28;20201;-67
2022/07/18 05:53:49;;;;;;;2.90;1.90;;;17.00;99.90;;;;;;5091691;28;20212;-67
2022/07/18 05:56:17;;;;;;;3.38;1.85;;;16.80;99.90;;;;;;5092083;28;20220;-67
2022/07/18 05:58:44;;;;;;;3.28;1.85;;;16.90;99.90;;;;;;5091294;28;20202;-67
2022/07/18 06:01:11;;;;;;;4.07;2.00;;;16.90;99.90;;;;;;5091796;28;20208;-67
2022/07/18 06:03:38;;;;;;;3.97;2.40;;;16.70;99.90;;;;;;5100423;28;20200;-67
2022/07/18 06:06:05;;;;;;;3.63;2.00;;;16.70;99.90;;;;;;5105140;28;20215;-67
2022/07/18 06:08:32;;;;;;;3.50;2.30;;;16.80;99.90;;;;;;5106016;28;20202;-67
2022/07/18 06:10:58;;;;;;;4.50;2.30;;;16.50;99.90;;;;;;5091802;28;20206;-67
2022/07/18 06:13:27;;;;;;;3.90;2.10;;;16.60;99.90;;;;;;5091273;28;20206;-79
2022/07/18 06:15:53;;;;;;;4.00;2.13;;;16.80;99.90;;;;;;5090905;28;20197;-70
2022/07/18 06:18:20;;;;;;;5.93;2.20;;;16.70;99.90;;;;;;5091240;28;20233;-79
2022/07/18 06:20:47;;;;;;;5.90;2.30;;;16.80;99.90;;;;;;5092108;28;20684;-79
2022/07/18 06:23:14;;;;;;;7.80;2.92;;;17.10;99.90;;;;;;5091575;28;20209;-79
2022/07/18 06:25:41;;;;;;;7.15;3.10;;;17.60;99.90;;;;;;5092085;28;20205;-79
2022/07/18 06:28:08;;;;;;;6.07;2.58;;;17.70;99.90;;;;;;5091670;28;20280;-80
2022/07/18 06:30:36;;;;;;;5.85;2.20;;;17.90;98.00;;;;;;5091971;28;20206;-80
2022/07/18 06:33:05;;;;;;;6.05;2.50;;;18.20;89.10;;;;;;5091162;28;20210;-79
2022/07/18 06:35:32;;;;;;;11.18;3.25;;;18.40;90.20;;;;;;5092141;28;20205;-79
2022/07/18 06:37:59;;;;;;;5.05;2.95;;;18.60;74.10;;;;;;5090783;28;20240;-79
2022/07/18 06:40:26;;;;;;;7.85;3.17;;;18.80;70.10;;;;;;5091029;28;20475;-79
2022/07/18 06:42:54;;;;;;;7.93;3.65;;;18.90;68.20;;;;;;5090807;28;20209;-79
2022/07/18 06:45:21;;;;;;;5.40;2.42;;;18.70;66.70;;;;;;5094517;28;20568;-79
2022/07/18 06:47:49;;;;;;;6.30;3.10;;;18.80;67.80;;;;;;5094780;28;20651;-80
2022/07/18 06:50:16;;;;;;;10.98;2.50;;;18.90;69.90;;;;;;5094436;28;20206;-79
2022/07/18 06:52:45;;;;;;;7.82;2.60;;;19.00;60.40;;;;;;5096402;28;20206;-79
2022/07/18 06:55:13;;;;;;;8.23;3.05;;;19.20;60.70;;;;;;5115652;28;20556;-79
2022/07/18 06:57:41;;;;;;;6.03;2.38;;;19.40;57.70;;;;;;5113757;28;20587;-79
2022/07/18 07:00:10;;;;;;;7.43;2.78;;;19.60;59.20;;;;;;5110116;28;20189;-79
2022/07/18 07:02:41;;;;;;;5.93;2.40;;;19.80;54.50;;;;;;5094775;28;20562;-80
2022/07/18 07:05:11;;;;;;;7.93;2.67;;;19.90;56.70;;;;;;5095150;28;20243;-79
2022/07/18 07:07:38;;;;;;;4.93;2.10;;;20.00;57.70;;;;;;5094816;28;20205;-79
2022/07/18 07:10:06;;;;;;;9.30;3.10;;;20.10;57.20;;;;;;5094967;28;20546;-79
2022/07/18 07:12:39;;;;;;;9.85;2.70;;;20.20;53.80;;;;;;5094124;28;20201;-79
2022/07/18 07:15:08;;;;;;;6.10;2.25;;;20.30;49.60;;;;;;5094850;28;20655;-79
2022/07/18 07:17:35;;;;;;;5.30;2.50;;;20.50;50.30;;;;;;5093646;28;20579;-79
2022/07/18 07:20:03;;;;;;;7.53;2.40;;;20.70;50.40;;;;;;5094541;28;20210;-79
2022/07/18 07:22:31;;;;;;;4.15;2.55;;;20.70;51.50;;;;;;5093865;28;20312;-79
2022/07/18 07:24:59;;;;;;;5.55;2.05;;;20.60;42.40;;;;;;5105917;28;20209;-79
2022/07/18 07:27:26;;;;;;;4.63;2.03;;;20.80;42.20;;;;;;5103728;28;20202;-80
2022/07/18 07:29:52;;;;;;;4.93;2.17;;;20.90;42.60;;;;;;5113223;28;20197;-79
2022/07/18 07:32:19;;;;;;;3.47;1.90;;;21.10;39.70;;;;;;5105600;28;20205;-79
2022/07/18 07:34:46;;;;;;;6.10;2.17;;;21.10;41.90;;;;;;5113074;28;20200;-79
2022/07/18 07:37:13;;;;;;;6.07;2.05;;;21.20;42.10;;;;;;5113561;27;20220;-79
2022/07/18 07:39:41;;;;;;;5.18;1.90;;;21.20;40.50;;;;;;5109074;28;20208;-79
2022/07/18 07:42:08;;;;;;;4.90;1.88;;;21.40;42.70;;;;;;5113894;28;20201;-79
2022/07/18 07:44:34;;;;;;;5.38;2.10;;;21.50;41.90;;;;;;5114810;28;20203;-79
2022/07/18 07:47:01;;;;;;;4.38;1.85;;;21.50;41.90;;;;;;5114323;28;20208;-79
2022/07/18 07:49:28;;;;;;;3.53;1.92;;;21.50;39.30;;;;;;5097147;28;20214;-79
2022/07/18 07:51:55;;;;;;;3.47;1.60;;;21.70;40.00;;;;;;5093545;28;20250;-79
2022/07/18 07:54:22;;;;;;;2.00;1.80;;;21.70;36.30;;;;;;5093727;28;20224;-80
2022/07/18 07:56:53;;;;;;;5.78;1.88;;;21.70;34.60;;;;;;5093416;28;20339;-79
2022/07/18 07:59:20;;;;;;;5.43;2.00;;;21.90;41.20;;;;;;5093963;28;20722;-80
2022/07/18 08:01:47;;;;;;;5.03;1.70;;;21.90;36.70;;;;;;5094043;28;20202;-79
2022/07/18 08:04:13;;;;;;;4.57;1.80;;;22.10;34.20;;;;;;5094049;28;20655;-80
2022/07/18 08:06:40;;;;;;;2.83;1.70;;;22.20;34.50;;;;;;5093884;28;20204;-80
2022/07/18 08:09:08;;;;;;;4.70;1.95;;;22.20;32.10;;;;;;5094063;28;20197;-79
2022/07/18 08:11:34;;;;;;;2.45;1.60;;;22.40;32.80;;;;;;5093505;28;20594;-79
2022/07/18 08:14:03;;;;;;;5.38;1.88;;;22.30;30.00;;;;;;5093335;28;20202;-80
2022/07/18 08:16:29;;;;;;;2.70;1.75;;;22.60;32.70;;;;;;5093233;28;20648;-79
2022/07/18 08:18:56;;;;;;;5.93;1.80;;;22.60;28.00;;;;;;5093517;28;20229;-80
2022/07/18 08:21:24;;;;;;;2.13;1.48;;;22.70;28.50;;;;;;5093418;28;20198;-79
2022/07/18 08:23:51;;;;;;;3.90;1.73;;;22.90;28.30;;;;;;5093115;28;20217;-79
2022/07/18 08:26:18;;;;;;;3.42;1.58;;;23.10;27.90;;;;;;5092712;28;20562;-79
2022/07/18 08:28:44;;;;;;;6.72;2.00;;;23.20;26.30;;;;;;5104311;28;20201;-79
2022/07/18 08:31:13;;;;;;;3.55;1.90;;;23.30;25.10;;;;;;5112994;28;20201;-80
2022/07/18 08:33:39;;;;;;;2.25;1.50;;;23.30;24.70;;;;;;5112301;28;20205;-79
2022/07/18 08:36:08;;;;;;;1.80;1.50;;;23.30;23.30;;;;;;5100109;28;20205;-79
2022/07/18 08:38:35;;;;;;;2.38;1.55;;;23.50;19.70;;;;;;5092729;28;20306;-79
2022/07/18 08:41:02;;;;;;;3.60;1.60;;;23.50;19.30;;;;;;5093287;28;20205;-79
2022/07/18 08:43:30;;;;;;;7.05;2.05;;;23.70;22.60;;;;;;5093394;28;20597;-79
2022/07/18 08:46:02;;;;;;;6.75;1.80;;;23.80;18.90;;;;;;5092289;28;20228;-80
2022/07/18 08:48:32;;;;;;;2.92;1.63;;;23.70;16.40;;;;;;5092548;28;20193;-79
2022/07/18 08:51:00;;;;;;;3.97;1.48;;;23.70;16.10;;;;;;5092978;28;20206;-79
2022/07/18 08:53:29;;;;;;;3.67;2.05;;;24.00;16.50;;;;;;5092714;28;20205;-79
2022/07/18 08:55:56;;;;;;;5.18;2.00;;;24.30;16.90;;;;;;5092980;28;20672;-79
2022/07/18 08:58:23;;;;;;;5.25;2.05;;;24.50;17.90;;;;;;5092655;28;20275;-79
2022/07/18 09:00:50;;;;;;;4.50;2.13;;;24.70;16.00;;;;;;5092817;28;20201;-79
2022/07/18 09:03:17;;;;;;;3.45;1.50;;;25.10;12.20;;;;;;5092553;28;20213;-80
2022/07/18 09:05:46;;;;;;;3.83;1.38;;;25.50;10.40;;;;;;5092738;28;20205;-79
2022/07/18 09:08:15;;;;;;;3.72;1.58;;;25.90;7.30;;;;;;5106932;28;20650;-79
2022/07/18 09:10:50;;;;;;;1.45;1.27;;;25.90;7.30;;;;;;5095900;28;20208;-80
2022/07/18 09:13:17;;;;;;;2.55;1.50;;;26.10;6.70;;;;;;5113614;28;20598;-80
2022/07/18 09:16:01;;;;;;;7.35;2.03;;;26.50;3.90;;;;;;5110567;28;20197;-79
2022/07/18 09:18:28;;;;;;;3.78;1.77;;;27.10;2.40;;;;;;5089747;28;20225;-79
2022/07/18 09:21:02;;;;;;;2.53;1.77;;;27.40;1.00;;;;;;5092140;28;20205;-79
2022/07/18 09:23:30;;;;;;;2.00;1.60;;;27.40;1.00;;;;;;5092608;28;20260;-79
2022/07/18 09:25:59;;;;;;;1.50;1.40;;;27.90;1.00;;;;;;5092768;28;20225;-79
2022/07/18 09:28:26;;;;;;;4.32;1.90;;;28.00;1.00;;;;;;5092936;28;20254;-79
2022/07/18 09:30:53;;;;;;;3.17;1.80;;;27.90;1.00;;;;;;5091005;28;20209;-79
2022/07/18 09:33:21;;;;;;;6.18;2.45;;;28.50;1.00;;;;;;5092253;28;20201;-70
2022/07/18 09:35:50;;;;;;;5.03;2.15;;;29.00;1.00;;;;;;5091457;28;20205;-72
2022/07/18 09:38:20;;;;;;;3.85;2.25;;;28.70;1.00;;;;;;5092224;28;20923;-72
2022/07/18 09:40:49;;;;;;;4.63;2.25;;;28.90;1.00;;;;;;5092482;28;20337;-72
2022/07/18 09:43:18;;;;;;;3.05;2.40;;;29.10;1.00;;;;;;5099961;28;20203;-72
2022/07/18 09:45:47;;;;;;;6.47;2.80;;;29.10;1.00;;;;;;5112166;28;20202;-72
2022/07/18 09:48:17;;;;;;;4.20;2.58;;;29.10;1.00;;;;;;5111535;28;20219;-72
2022/07/18 09:50:51;;;;;;;7.60;2.15;;;29.10;1.00;;;;;;5112549;28;20560;-72
2022/07/18 09:53:23;;;;;;;3.30;2.00;;;29.60;1.00;;;;;;5104587;28;20690;-72
2022/07/18 09:55:53;;;;;;;2.88;2.17;;;29.90;1.00;;;;;;5092334;28;20652;-72
2022/07/18 09:58:22;;;;;;;2.53;1.70;;;30.10;1.00;;;;;;5091451;28;20697;-73
2022/07/18 10:00:49;;;;;;;3.65;1.90;;;30.00;1.00;;;;;;5091976;28;20206;-73
2022/07/18 10:03:17;;;;;;;3.20;2.03;;;29.90;1.00;;;;;;5091513;28;20206;-72
2022/07/18 10:05:45;;;;;;;5.15;2.05;;;29.20;1.00;;;;;;5091668;28;20209;-72
2022/07/18 10:08:14;;;;;;;2.58;2.20;;;29.90;1.00;;;;;;5091698;28;20201;-72
2022/07/18 10:10:44;;;;;;;1.90;1.80;;;30.60;1.00;;;;;;5092138;28;20201;-72
2022/07/18 10:13:12;;;;;;;4.07;2.13;;;30.40;1.00;;;;;;5090951;28;20696;-72
2022/07/18 10:15:41;;;;;;;2.75;1.75;;;30.00;1.00;;;;;;5092303;28;20182;-72
2022/07/18 10:18:10;;;;;;;2.75;1.98;;;30.40;1.00;;;;;;5092921;28;20621;-72
2022/07/18 10:20:38;;;;;;;2.83;2.00;;;30.70;1.00;;;;;;5096199;28;20201;-73
2022/07/18 10:23:11;;;;;;;2.38;2.00;;;30.80;1.00;;;;;;5094966;28;20217;-72
2022/07/18 10:25:38;;;;;;;6.28;2.40;;;30.70;1.00;;;;;;5096122;28;20205;-72
2022/07/18 10:28:09;;;;;;;2.65;1.98;;;30.50;1.00;;;;;;5095129;28;20197;-72
2022/07/18 10:30:39;;;;;;;2.10;1.90;;;30.30;1.00;;;;;;5094667;28;20198;-72
2022/07/18 10:33:43;;;;;;;3.83;1.88;;;30.70;1.00;;;;;;5099970;28;20200;-72
2022/07/18 10:36:12;;;;;;;2.30;2.03;;;30.60;1.00;;;;;;5108915;28;20197;-72
2022/07/18 10:38:40;;;;;;;2.42;2.22;;;30.60;1.00;;;;;;5114483;28;20213;-72
2022/07/18 10:41:13;;;;;;;2.28;2.08;;;31.20;1.00;;;;;;5115579;28;20212;-72
2022/07/18 10:43:44;;;;;;;3.17;2.40;;;31.20;1.00;;;;;;5105256;28;20251;-73
2022/07/18 10:46:12;;;;;;;3.45;2.15;;;31.10;1.00;;;;;;5094347;28;20413;-72
2022/07/18 10:49:06;;;;;;;3.50;2.10;;;31.00;1.00;;;;;;5095048;28;20556;-73
2022/07/18 10:51:36;;;;;;;3.67;2.17;;;31.60;1.00;;;;;;5058811;28;20533;-72
2022/07/18 10:54:10;;;;;;;3.70;2.08;;;31.30;1.00;;;;;;5094963;28;20262;-72
2022/07/18 10:57:08;;;;;;;2.50;2.30;;;31.90;1.00;;;;;;5095185;28;20208;-72
2022/07/18 10:59:38;;;;;;;4.63;2.60;;;31.30;1.00;;;;;;5095421;28;20743;-72
2022/07/18 11:02:08;;;;;;;2.58;2.38;;;31.20;1.00;;;;;;5093287;28;20561;-72
2022/07/18 11:04:40;;;;;;;3.08;2.50;;;31.50;1.00;;;;;;5095083;28;20284;-72
2022/07/18 11:07:12;;;;;;;3.00;2.70;;;30.90;1.00;;;;;;5094674;28;20198;-72
2022/07/18 11:09:41;;;;;;;4.05;2.67;;;31.40;1.00;;;;;;5094868;28;20193;-73
2022/07/18 11:12:29;;;;;;;3.22;2.85;;;31.20;1.00;;;;;;5094271;28;20656;-73
2022/07/18 11:15:08;;;;;;;3.08;2.38;;;31.30;1.00;;;;;;5094795;28;20613;-72
2022/07/18 11:17:58;;;;;;;5.30;2.42;;;31.10;1.00;;;;;;5103695;28;20673;-73
2022/07/18 11:20:37;;;;;;;4.50;2.30;;;31.60;1.00;;;;;;5109349;28;20722;-73
2022/07/18 11:23:13;;;;;;;3.70;2.65;;;31.60;1.00;;;;;;5100921;28;20686;-72
2022/07/18 11:25:40;;;;;;;2.83;2.55;;;31.30;1.00;;;;;;5107779;28;20670;-72
2022/07/18 11:28:08;;;;;;;4.47;3.08;;;31.50;1.00;;;;;;5101985;28;20201;-73
2022/07/18 11:30:37;;;;;;;2.60;2.40;;;31.60;1.00;;;;;;5104779;28;20221;-72
2022/07/18 11:33:04;;;;;;;3.50;2.65;;;31.90;1.00;;;;;;5104854;28;20230;-72
2022/07/18 11:35:31;;;;;;;3.10;2.20;;;31.90;1.00;;;;;;5106392;28;20209;-72
2022/07/18 11:37:58;;;;;;;3.67;2.80;;;32.20;1.00;;;;;;5093488;28;20558;-72
2022/07/18 11:40:24;;;;;;;3.58;2.45;;;32.20;1.00;;;;;;5094432;28;20226;-73
2022/07/18 11:42:51;;;;;;;4.30;2.83;;;31.80;1.00;;;;;;5102375;28;20213;-72
2022/07/18 11:45:18;;;;;;;2.80;1.90;;;32.00;1.00;;;;;;5109767;27;20632;-73
2022/07/18 11:47:51;;;;;;;3.90;2.53;;;32.20;1.00;;;;;;5112280;28;20540;-72
2022/07/18 11:50:26;;;;;;;2.95;2.15;;;32.10;1.00;;;;;;5112080;28;20185;-73
2022/07/18 11:52:57;;;;;;;3.78;2.30;;;32.20;1.00;;;;;;5109112;28;20197;-72
2022/07/18 11:55:33;;;;;;;3.50;2.28;;;32.50;1.00;;;;;;5113682;28;20647;-72
2022/07/18 11:58:07;;;;;;;4.82;2.30;;;32.30;1.00;;;;;;5106028;28;20568;-72
2022/07/18 12:00:34;;;;;;;5.40;2.20;;;31.80;1.00;;;;;;5111416;28;20706;-72
2022/07/18 12:03:14;;;;;;;3.80;2.50;;;31.80;1.00;;;;;;5108921;28;20670;-72
2022/07/18 12:05:42;;;;;;;2.95;2.45;;;32.10;1.00;;;;;;5094147;28;20212;-72
2022/07/18 12:08:29;;;;;;;3.05;2.40;;;31.90;1.00;;;;;;5093108;28;20210;-72
2022/07/18 12:11:10;;;;;;;3.47;2.30;;;31.80;1.00;;;;;;5099401;28;20200;-72
2022/07/18 12:13:45;;;;;;;3.00;2.30;;;32.20;1.00;;;;;;5100169;28;20275;-72
2022/07/18 12:16:37;;;;;;;3.08;2.60;;;32.50;1.00;;;;;;5107307;28;20193;-72
2022/07/18 12:19:12;;;;;;;3.25;2.58;;;32.50;1.00;;;;;;5092461;28;20217;-72
2022/07/18 12:21:48;;;;;;;5.45;2.90;;;32.50;1.00;;;;;;5105755;28;20204;-73
2022/07/18 12:24:29;;;;;;;2.75;2.20;;;32.20;1.00;;;;;;5108304;28;20204;-73
2022/07/18 12:27:18;;;;;;;4.07;3.15;;;31.90;1.00;;;;;;5105820;28;20200;-72
2022/07/18 12:30:11;;;;;;;4.88;2.47;;;32.10;1.00;;;;;;5107429;28;20719;-72
2022/07/18 12:32:43;;;;;;;3.40;2.80;;;31.40;1.00;;;;;;5076928;28;20678;-73
2022/07/18 12:35:14;;;;;;;3.28;2.60;;;31.10;1.00;;;;;;5107570;28;20200;-72
2022/07/18 12:37:41;;;;;;;3.75;2.28;;;31.60;1.00;;;;;;5108019;28;20208;-73
2022/07/18 12:40:10;;;;;;;4.80;2.80;;;32.00;1.00;;;;;;5107481;28;20684;-73
2022/07/18 12:42:40;;;;;;;5.10;2.90;;;31.80;1.00;;;;;;5110117;28;20224;-73
2022/07/18 12:45:08;;;;;;;3.53;2.80;;;32.20;1.00;;;;;;5103064;28;20579;-72
2022/07/18 12:47:35;;;;;;;4.97;2.80;;;32.50;1.00;;;;;;5103770;27;20208;-72
2022/07/18 12:50:02;;;;;;;3.55;2.65;;;32.80;1.00;;;;;;5106841;28;20685;-72
2022/07/18 12:52:30;;;;;;;5.38;2.80;;;33.10;1.00;;;;;;5108398;28;20675;-68
2022/07/18 12:54:57;;;;;;;5.05;3.17;;;33.20;1.00;;;;;;5101836;28;20651;-68
2022/07/18 12:57:24;;;;;;;4.85;4.30;;;33.10;1.00;;;;;;5104364;28;20201;-68
2022/07/18 12:59:51;;;;;;;4.13;2.53;;;32.70;1.00;;;;;;5107465;28;20709;-68
2022/07/18 13:02:19;;;;;;;2.83;2.63;;;33.30;1.00;;;;;;5109594;28;20200;-68